Time;durP1;ratioP1;P1;durP2;ratioP2;P2;SDS_P1;SDS_P2;PMS_P1;PMS_P2;Temp;Humidity;BMP_temperature;BMP_pressure;BME280_temperature;BME280_humidity;BME280_pressure;Samples;Min_cycle;Max_cycle;Signal;HPM_P1;HPM_P2
2021/09/30 00:02:26;;;;;;;0.80;0.20;;;;;;;;;;5040279;28;20572;-70
2021/09/30 00:04:53;;;;;;;1.00;0.20;;;;;;;;;;5045028;28;20029;-70
2021/09/30 00:07:20;;;;;;;0.98;0.40;;;;;;;;;;5057658;28;20032;-69
2021/09/30 00:09:48;;;;;;;5.95;0.40;;;;;;;;;;5059305;28;20025;-71
2021/09/30 00:12:19;;;;;;;3.25;0.50;;;;;;;;;;5056728;28;20028;-70
2021/09/30 00:14:56;;;;;;;2.20;1.67;;;;;;;;;;5060188;28;20436;-71
2021/09/30 00:50:31;;;;;;;1.02;0.20;;;;;;;;;;5051647;28;20592;-69
2021/09/30 01:28:41;;;;;;;1.17;0.20;;;;;;;;;;5034210;28;20089;-71
2021/09/30 02:22:29;;;;;;;9.43;3.85;;;;;;;;;;5076651;28;20009;-66
2021/09/30 02:27:52;;;;;;;9.48;4.05;;;;;;;;;;5064850;28;20051;-67
2021/09/30 03:00:45;;;;;;;4.57;1.50;;;;;;;;;;5064812;28;20017;-68
2021/09/30 03:03:14;;;;;;;6.13;2.70;;;;;;;;;;5049680;28;20052;-73
2021/09/30 03:05:41;;;;;;;3.90;1.83;;;;;;;;;;5037594;28;20445;-70
2021/09/30 03:08:08;;;;;;;5.90;2.03;;;;;;;;;;5039779;28;20434;-69
2021/09/30 03:10:36;;;;;;;21.35;8.80;;;;;;;;;;5055286;28;20092;-71
2021/09/30 03:13:03;;;;;;;7.10;1.23;;;;;;;;;;5071919;28;20017;-69
2021/09/30 03:15:40;;;;;;;4.25;1.05;;;;;;;;;;5078139;28;20033;-65
2021/09/30 03:23:28;;;;;;;19.83;7.63;;;;;;;;;;5033105;28;20049;-68
2021/09/30 03:25:55;;;;;;;4.00;1.15;;;;;;;;;;5036770;28;20079;-73
2021/09/30 03:28:26;;;;;;;2.55;1.10;;;;;;;;;;5049397;28;20021;-71
2021/09/30 03:30:54;;;;;;;4.25;1.17;;;;;;;;;;5053828;28;20390;-72
2021/09/30 03:33:22;;;;;;;3.58;0.85;;;;;;;;;;5038939;28;20026;-70
2021/09/30 03:35:49;;;;;;;4.68;1.17;;;;;;;;;;5054617;28;20415;-70
2021/09/30 03:38:16;;;;;;;5.80;1.17;;;;;;;;;;5054142;28;20032;-70
2021/09/30 03:40:43;;;;;;;2.05;0.77;;;;;;;;;;5057157;28;20120;-72
2021/09/30 03:43:11;;;;;;;4.07;1.30;;;;;;;;;;5056881;28;20033;-71
2021/09/30 03:45:39;;;;;;;3.97;1.33;;;;;;;;;;5054953;28;20063;-72
2021/09/30 03:48:06;;;;;;;3.60;1.02;;;;;;;;;;5050120;28;20025;-71
2021/09/30 03:50:51;;;;;;;5.43;1.00;;;;;;;;;;5059118;28;20029;-72
2021/09/30 03:53:38;;;;;;;16.70;4.80;;;;;;;;;;5057157;28;20100;-71
2021/09/30 04:01:40;;;;;;;4.85;1.08;;;;;;;;;;5049734;28;20068;-74
2021/09/30 04:04:07;;;;;;;5.00;1.10;;;;;;;;;;5053687;28;20060;-71
2021/09/30 04:06:34;;;;;;;120.43;27.52;;;;;;;;;;5052799;28;20094;-70
2021/09/30 04:09:01;;;;;;;4.90;1.55;;;;;;;;;;5057570;28;20021;-71
2021/09/30 04:11:28;;;;;;;123.47;26.52;;;;;;;;;;5056697;28;20428;-74
2021/09/30 04:13:55;;;;;;;17.77;5.65;;;;;;;;;;5054199;28;20043;-70
2021/09/30 04:16:26;;;;;;;6.53;1.00;;;;;;;;;;5060272;28;20036;-73
2021/09/30 04:18:53;;;;;;;3.95;1.00;;;;;;;;;;5049921;28;20171;-73
2021/09/30 04:21:20;;;;;;;2.95;0.90;;;;;;;;;;5053581;28;20048;-73
2021/09/30 04:23:48;;;;;;;21.55;6.50;;;;;;;;;;5047026;28;20028;-74
2021/09/30 04:26:15;;;;;;;3.80;1.15;;;;;;;;;;5052847;28;20037;-72
2021/09/30 04:28:42;;;;;;;176.10;20.73;;;;;;;;;;5050872;28;20100;-72
2021/09/30 04:31:09;;;;;;;11.93;3.92;;;;;;;;;;5051943;28;20071;-73
2021/09/30 04:33:36;;;;;;;3.13;1.27;;;;;;;;;;5041913;28;20041;-71
2021/09/30 04:36:03;;;;;;;3.55;1.15;;;;;;;;;;5049675;28;20671;-71
2021/09/30 04:38:30;;;;;;;2.53;1.02;;;;;;;;;;5054503;28;20049;-70
2021/09/30 04:40:57;;;;;;;2.13;0.57;;;;;;;;;;5052958;28;20021;-72
2021/09/30 04:43:24;;;;;;;0.05;0.05;;;;;;;;;;5053666;28;20075;-76
2021/09/30 04:45:52;;;;;;;0.00;0.00;;;;;;;;;;5051878;28;20045;-71
2021/09/30 04:48:22;;;;;;;0.10;0.10;;;;;;;;;;5042382;28;20131;-69
2021/09/30 04:50:49;;;;;;;0.90;0.90;;;;;;;;;;5050124;28;20104;-71
2021/09/30 04:53:16;;;;;;;183.48;53.22;;;;;;;;;;5045531;28;20060;-69
2021/09/30 04:55:43;;;;;;;82.05;32.72;;;;;;;;;;5050796;28;20100;-71
2021/09/30 04:58:10;;;;;;;27.08;12.63;;;;;;;;;;5053061;28;20052;-68
2021/09/30 05:00:38;;;;;;;11.77;6.28;;;;;;;;;;5041776;28;20037;-67
2021/09/30 05:03:05;;;;;;;6.05;3.83;;;;;;;;;;5051146;28;20033;-68
2021/09/30 05:05:32;;;;;;;7.05;3.63;;;;;;;;;;5045237;28;20072;-68
2021/09/30 05:08:02;;;;;;;5.35;2.30;;;;;;;;;;5048453;28;20116;-69
2021/09/30 05:10:33;;;;;;;6.57;2.17;;;;;;;;;;5059905;28;20067;-68
2021/09/30 05:13:16;;;;;;;6.28;2.85;;;;;;;;;;5063202;28;20039;-68
2021/09/30 05:15:43;;;;;;;2.03;1.38;;;;;;;;;;5053268;28;20022;-69
2021/09/30 05:18:11;;;;;;;4.00;1.30;;;;;;;;;;5061383;28;20012;-69
2021/09/30 05:20:38;;;;;;;4.10;1.17;;;;;;;;;;5052757;28;20269;-68
2021/09/30 05:23:05;;;;;;;2.45;0.90;;;;;;;;;;5055580;28;20040;-68
2021/09/30 05:25:33;;;;;;;2.47;1.02;;;;;;;;;;5045451;28;20025;-68
2021/09/30 05:28:02;;;;;;;2.40;0.70;;;;;;;;;;5042638;28;20038;-68
2021/09/30 05:30:29;;;;;;;1.30;0.43;;;;;;;;;;5052507;28;20017;-69
2021/09/30 05:32:56;;;;;;;1.55;0.55;;;;;;;;;;5048277;28;20041;-68
2021/09/30 05:35:24;;;;;;;1.75;0.50;;;;;;;;;;5056354;28;20021;-69
2021/09/30 05:37:51;;;;;;;1.15;0.35;;;;;;;;;;5050094;28;20045;-69
2021/09/30 05:40:20;;;;;;;3.25;0.50;;;;;;;;;;5050639;28;20060;-68
2021/09/30 05:42:47;;;;;;;3.22;0.45;;;;;;;;;;5047223;28;20439;-69
2021/09/30 05:45:16;;;;;;;0.95;0.30;;;;;;;;;;5038890;28;20028;-68
2021/09/30 05:47:44;;;;;;;1.15;0.55;;;;;;;;;;5061195;28;20013;-68
2021/09/30 05:50:12;;;;;;;1.67;0.60;;;;;;;;;;5071328;28;20031;-67
2021/09/30 05:52:40;;;;;;;1.70;0.38;;;;;;;;;;5067765;28;20025;-68
2021/09/30 05:55:07;;;;;;;0.65;0.30;;;;;;;;;;5075434;28;20009;-67
2021/09/30 05:57:35;;;;;;;2.47;0.40;;;;;;;;;;5064087;28;20033;-67
2021/09/30 06:11:16;;;;;;;3.90;0.90;;;;;;;;;;5069087;28;20028;-68
2021/09/30 06:16:20;;;;;;;5.25;1.40;;;;;;;;;;5060249;28;20038;-67
2021/09/30 06:18:47;;;;;;;3.03;0.55;;;;;;;;;;5066272;28;20096;-67
2021/09/30 06:21:14;;;;;;;4.90;1.00;;;;;;;;;;5069036;28;20029;-68
2021/09/30 06:23:41;;;;;;;2.65;0.70;;;;;;;;;;5072551;28;20009;-68
2021/09/30 06:26:08;;;;;;;2.40;0.85;;;;;;;;;;5075811;28;20044;-67
2021/09/30 06:28:36;;;;;;;4.22;1.33;;;;;;;;;;5059317;28;20090;-68
2021/09/30 06:31:03;;;;;;;3.40;0.85;;;;;;;;;;5072585;28;20034;-68
2021/09/30 06:33:31;;;;;;;3.17;0.70;;;;;;;;;;5061511;28;20366;-67
2021/09/30 06:35:58;;;;;;;4.72;1.25;;;;;;;;;;5059408;28;20045;-68
2021/09/30 06:38:25;;;;;;;3.83;0.70;;;;;;;;;;5072441;28;20078;-68
2021/09/30 06:40:52;;;;;;;3.50;0.73;;;;;;;;;;5052773;28;20040;-68
2021/09/30 06:43:19;;;;;;;2.65;0.63;;;;;;;;;;5054572;28;20030;-67
2021/09/30 06:45:49;;;;;;;4.72;0.88;;;;;;;;;;5057502;28;20026;-68
2021/09/30 06:48:16;;;;;;;3.08;0.52;;;;;;;;;;5054909;28;20021;-69
2021/09/30 06:50:44;;;;;;;4.50;1.00;;;;;;;;;;5047528;28;20021;-69
2021/09/30 06:53:11;;;;;;;7.32;1.38;;;;;;;;;;5057020;28;20115;-68
2021/09/30 06:55:42;;;;;;;4.63;1.10;;;;;;;;;;5052262;28;20025;-68
2021/09/30 06:58:12;;;;;;;5.00;0.98;;;;;;;;;;5041848;28;20017;-68
2021/09/30 07:00:40;;;;;;;4.80;0.90;;;;;;;;;;5038936;28;20502;-68
2021/09/30 07:03:08;;;;;;;8.93;1.13;;;;;;;;;;5042582;28;20029;-70
2021/09/30 07:05:36;;;;;;;6.57;1.10;;;;;;;;;;5048876;28;20037;-68
2021/09/30 07:08:03;;;;;;;4.53;1.13;;;;;;;;;;5047388;28;20070;-68
2021/09/30 07:10:31;;;;;;;9.40;1.73;;;;;;;;;;5049148;28;20021;-68
2021/09/30 07:12:58;;;;;;;4.95;1.35;;;;;;;;;;5048655;28;20033;-67
2021/09/30 07:15:25;;;;;;;7.97;1.17;;;;;;;;;;5042404;28;20420;-69
2021/09/30 07:17:52;;;;;;;7.88;2.03;;;;;;;;;;5037060;28;20041;-70
2021/09/30 07:20:19;;;;;;;5.55;1.05;;;;;;;;;;5044311;28;20025;-69
2021/09/30 07:22:46;;;;;;;7.70;1.77;;;;;;;;;;5043908;28;20039;-68
2021/09/30 07:25:17;;;;;;;7.68;2.30;;;;;;;;;;5041292;28;20025;-68
2021/09/30 07:27:44;;;;;;;10.77;1.50;;;;;;;;;;5043928;28;20030;-68
2021/09/30 07:30:11;;;;;;;10.70;1.88;;;;;;;;;;5037268;28;20037;-68
2021/09/30 07:32:38;;;;;;;4.32;1.20;;;;;;;;;;5043473;28;20025;-68
2021/09/30 07:35:06;;;;;;;7.95;1.67;;;;;;;;;;5037736;28;20113;-68
2021/09/30 07:37:33;;;;;;;8.85;1.27;;;;;;;;;;5046321;28;20469;-68
2021/09/30 07:40:00;;;;;;;9.00;1.38;;;;;;;;;;5046601;28;20041;-68
2021/09/30 07:42:27;;;;;;;5.75;1.08;;;;;;;;;;5039407;28;20025;-68
2021/09/30 07:44:54;;;;;;;6.95;1.00;;;;;;;;;;5044656;28;20037;-68
2021/09/30 07:47:21;;;;;;;6.93;1.10;;;;;;;;;;5045961;28;20028;-68
2021/09/30 07:49:48;;;;;;;7.43;1.13;;;;;;;;;;5048496;28;20087;-68
2021/09/30 07:52:15;;;;;;;7.88;1.55;;;;;;;;;;5045616;28;20100;-67
2021/09/30 07:54:43;;;;;;;7.63;1.17;;;;;;;;;;5045527;28;20017;-67
2021/09/30 07:57:10;;;;;;;8.07;1.77;;;;;;;;;;5051860;28;20057;-67
2021/09/30 07:59:38;;;;;;;8.70;1.60;;;;;;;;;;5054449;28;20025;-67
2021/09/30 08:02:05;;;;;;;10.27;1.67;;;;;;;;;;5050951;28;20021;-67
2021/09/30 08:04:32;;;;;;;8.73;1.65;;;;;;;;;;5045998;28;20090;-67
2021/09/30 08:07:01;;;;;;;8.48;1.50;;;;;;;;;;5038053;28;20033;-67
2021/09/30 08:09:28;;;;;;;13.18;2.88;;;;;;;;;;5041538;28;20021;-66
2021/09/30 08:11:55;;;;;;;6.82;1.02;;;;;;;;;;5048092;28;20359;-67
2021/09/30 08:14:22;;;;;;;9.38;1.50;;;;;;;;;;5041861;28;20040;-67
2021/09/30 08:16:49;;;;;;;9.60;1.90;;;;;;;;;;5051516;28;20017;-67
2021/09/30 08:19:17;;;;;;;8.52;1.90;;;;;;;;;;5040463;28;20545;-67
2021/09/30 08:21:47;;;;;;;8.18;1.92;;;;;;;;;;5041320;28;20364;-67
2021/09/30 08:24:15;;;;;;;8.50;1.58;;;;;;;;;;5041044;28;20074;-67
2021/09/30 08:26:43;;;;;;;9.35;1.80;;;;;;;;;;5045261;28;20088;-67
2021/09/30 08:29:10;;;;;;;9.32;2.30;;;;;;;;;;5045278;28;20024;-68
2021/09/30 08:31:38;;;;;;;10.40;2.30;;;;;;;;;;5046134;28;20021;-68
2021/09/30 08:34:05;;;;;;;7.50;2.20;;;;;;;;;;5038758;28;20017;-67
2021/09/30 08:36:32;;;;;;;8.60;1.95;;;;;;;;;;5042361;28;20026;-68
2021/09/30 08:39:00;;;;;;;7.72;1.83;;;;;;;;;;5042708;28;20084;-68
2021/09/30 08:41:28;;;;;;;10.93;2.15;;;;;;;;;;5043679;28;20030;-68
2021/09/30 08:43:55;;;;;;;5.38;1.52;;;;;;;;;;5043497;28;20097;-68
2021/09/30 08:46:22;;;;;;;8.15;1.67;;;;;;;;;;5045088;28;20037;-68
2021/09/30 08:48:49;;;;;;;9.48;2.08;;;;;;;;;;5044446;28;20032;-68
2021/09/30 08:51:17;;;;;;;7.68;1.40;;;;;;;;;;5046203;28;20083;-68
2021/09/30 08:53:45;;;;;;;10.63;1.55;;;;;;;;;;5044790;28;20053;-67
2021/09/30 08:56:12;;;;;;;11.77;1.52;;;;;;;;;;5046613;28;20036;-68
2021/09/30 08:58:40;;;;;;;4.68;1.38;;;;;;;;;;5042248;28;20474;-67
2021/09/30 09:01:09;;;;;;;8.23;1.70;;;;;;;;;;5042390;28;20032;-68
2021/09/30 09:03:46;;;;;;;8.43;1.48;;;;;;;;;;5041020;28;20049;-68
2021/09/30 09:06:33;;;;;;;9.13;1.42;;;;;;;;;;5045265;28;20159;-68
2021/09/30 09:09:20;;;;;;;7.55;1.27;;;;;;;;;;5043230;28;20033;-68
2021/09/30 09:11:49;;;;;;;7.70;1.73;;;;;;;;;;5045940;28;20037;-67
2021/09/30 09:14:30;;;;;;;9.95;2.08;;;;;;;;;;5043377;28;20025;-67
2021/09/30 09:17:01;;;;;;;6.32;1.27;;;;;;;;;;5044292;28;20021;-67
2021/09/30 09:19:29;;;;;;;7.07;1.77;;;;;;;;;;5044135;28;20029;-67
2021/09/30 09:21:56;;;;;;;8.00;2.08;;;;;;;;;;5040865;28;20096;-67
2021/09/30 09:24:23;;;;;;;5.78;2.40;;;;;;;;;;5041114;28;20028;-67
2021/09/30 09:26:59;;;;;;;12.65;3.10;;;;;;;;;;5041125;28;20060;-67
2021/09/30 09:29:29;;;;;;;6.40;2.17;;;;;;;;;;5045369;28;20082;-67
2021/09/30 09:31:56;;;;;;;6.70;2.28;;;;;;;;;;5041027;28;20087;-68
2021/09/30 09:34:26;;;;;;;6.50;1.90;;;;;;;;;;5043578;28;20025;-67
2021/09/30 09:36:54;;;;;;;4.57;1.92;;;;;;;;;;5042340;28;20523;-67
2021/09/30 09:39:35;;;;;;;7.97;1.92;;;;;;;;;;5044600;28;20044;-66
2021/09/30 09:42:08;;;;;;;5.45;1.63;;;;;;;;;;5046155;28;20581;-67
2021/09/30 09:44:50;;;;;;;5.53;1.80;;;;;;;;;;5042117;28;20518;-67
2021/09/30 09:47:22;;;;;;;5.72;1.25;;;;;;;;;;5036236;28;20091;-67
2021/09/30 09:50:07;;;;;;;5.88;1.33;;;;;;;;;;5039852;28;20017;-67
2021/09/30 09:52:42;;;;;;;8.40;1.30;;;;;;;;;;5046290;28;20056;-67
2021/09/30 09:55:21;;;;;;;3.42;1.25;;;;;;;;;;5042102;28;21929;-67
2021/09/30 09:58:06;;;;;;;5.45;1.02;;;;;;;;;;5043438;28;20083;-67
2021/09/30 10:00:41;;;;;;;2.97;1.10;;;;;;;;;;5043902;28;20021;-67
2021/09/30 10:03:28;;;;;;;3.35;0.80;;;;;;;;;;5038538;28;20071;-67
2021/09/30 10:05:59;;;;;;;2.85;0.90;;;;;;;;;;5040012;28;20039;-67
2021/09/30 10:08:26;;;;;;;3.08;0.70;;;;;;;;;;5041183;28;20029;-67
2021/09/30 10:10:55;;;;;;;5.53;1.00;;;;;;;;;;5042863;28;20075;-67
2021/09/30 10:13:24;;;;;;;2.53;1.10;;;;;;;;;;5043166;28;20021;-67
2021/09/30 10:15:55;;;;;;;2.42;0.75;;;;;;;;;;5042921;28;20155;-67
2021/09/30 10:18:23;;;;;;;4.57;1.05;;;;;;;;;;5036419;28;20041;-67
2021/09/30 10:20:51;;;;;;;3.13;0.98;;;;;;;;;;5041266;28;20572;-66
2021/09/30 10:23:23;;;;;;;3.80;1.20;;;;;;;;;;5039790;28;20029;-67
2021/09/30 10:25:52;;;;;;;2.83;0.85;;;;;;;;;;5041599;28;20516;-67
2021/09/30 10:28:20;;;;;;;3.13;0.75;;;;;;;;;;5040621;28;20029;-67
2021/09/30 10:30:48;;;;;;;4.40;0.77;;;;;;;;;;5040454;28;20026;-67
2021/09/30 10:33:20;;;;;;;3.60;0.80;;;;;;;;;;5041491;28;20068;-67
2021/09/30 10:35:53;;;;;;;5.45;1.70;;;;;;;;;;5043618;28;20456;-67
2021/09/30 10:38:20;;;;;;;3.38;1.20;;;;;;;;;;5034940;28;20076;-67
2021/09/30 10:41:02;;;;;;;4.07;0.70;;;;;;;;;;5043739;28;20025;-67
2021/09/30 10:43:30;;;;;;;2.38;0.50;;;;;;;;;;5045984;28;20452;-67
2021/09/30 10:45:57;;;;;;;3.50;0.73;;;;;;;;;;5041767;28;20453;-68
2021/09/30 10:48:26;;;;;;;2.15;0.60;;;;;;;;;;5045109;28;20025;-67
2021/09/30 10:50:57;;;;;;;2.33;0.60;;;;;;;;;;5044861;28;20028;-67
2021/09/30 10:53:43;;;;;;;3.30;0.57;;;;;;;;;;5038022;28;20024;-67
2021/09/30 10:56:30;;;;;;;3.75;0.90;;;;;;;;;;5040517;28;20029;-66
2021/09/30 10:59:23;;;;;;;1.40;0.50;;;;;;;;;;5045024;28;20033;-66
2021/09/30 11:01:52;;;;;;;2.72;0.57;;;;;;;;;;5022631;28;20183;-67
2021/09/30 11:04:20;;;;;;;0.90;0.40;;;;;;;;;;5045277;28;20040;-66
2021/09/30 11:07:10;;;;;;;1.30;0.80;;;;;;;;;;5047222;28;20124;-67
2021/09/30 11:09:37;;;;;;;4.88;0.60;;;;;;;;;;5032160;28;20048;-67
2021/09/30 11:12:12;;;;;;;3.08;0.57;;;;;;;;;;5035311;28;20350;-67
2021/09/30 11:14:58;;;;;;;1.88;0.50;;;;;;;;;;5044489;28;20398;-67
2021/09/30 11:17:38;;;;;;;3.90;0.40;;;;;;;;;;5040329;28;20174;-67
2021/09/30 11:20:23;;;;;;;1.40;0.50;;;;;;;;;;5035675;28;20067;-69
2021/09/30 11:22:50;;;;;;;3.80;0.52;;;;;;;;;;5042435;28;20501;-66
2021/09/30 11:25:17;;;;;;;2.03;0.68;;;;;;;;;;5043742;28;20038;-67
2021/09/30 11:27:44;;;;;;;2.58;1.08;;;;;;;;;;5038820;28;20462;-67
2021/09/30 11:30:22;;;;;;;2.22;0.70;;;;;;;;;;5039917;28;20026;-67
2021/09/30 11:32:49;;;;;;;2.42;0.65;;;;;;;;;;5042640;28;20505;-67
2021/09/30 11:35:17;;;;;;;1.42;0.70;;;;;;;;;;5034290;28;20061;-67
2021/09/30 11:37:45;;;;;;;2.33;0.50;;;;;;;;;;5048623;28;20040;-67
2021/09/30 11:40:13;;;;;;;3.55;0.52;;;;;;;;;;5041302;28;20497;-67
2021/09/30 11:42:46;;;;;;;3.58;0.47;;;;;;;;;;5046468;28;20063;-67
2021/09/30 11:45:19;;;;;;;2.78;0.50;;;;;;;;;;5039742;28;20040;-67
2021/09/30 11:47:47;;;;;;;3.03;0.95;;;;;;;;;;5045114;28;20397;-67
2021/09/30 11:50:19;;;;;;;2.42;0.40;;;;;;;;;;5054429;28;20055;-67
2021/09/30 11:52:55;;;;;;;2.88;0.50;;;;;;;;;;5052300;28;20037;-67
2021/09/30 11:55:27;;;;;;;1.95;0.47;;;;;;;;;;5039445;28;20062;-67
2021/09/30 11:57:55;;;;;;;0.93;0.30;;;;;;;;;;5048700;28;20021;-67
2021/09/30 12:00:23;;;;;;;3.03;0.70;;;;;;;;;;5045501;28;20026;-67
2021/09/30 12:03:00;;;;;;;2.58;0.63;;;;;;;;;;5046095;28;20079;-67
2021/09/30 12:05:29;;;;;;;2.85;1.15;;;;;;;;;;5054050;28;20029;-67
2021/09/30 12:07:58;;;;;;;3.38;0.60;;;;;;;;;;5049964;28;20060;-67
2021/09/30 12:10:26;;;;;;;1.27;0.40;;;;;;;;;;5034013;28;20369;-67
2021/09/30 12:12:53;;;;;;;2.03;0.95;;;;;;;;;;5044176;28;20457;-67
2021/09/30 12:15:20;;;;;;;1.73;0.60;;;;;;;;;;5052486;28;20040;-68
2021/09/30 12:17:48;;;;;;;1.42;0.60;;;;;;;;;;5044376;28;20363;-67
2021/09/30 12:20:16;;;;;;;2.70;0.60;;;;;;;;;;5052896;28;20066;-68
2021/09/30 12:22:48;;;;;;;2.95;0.60;;;;;;;;;;5047715;28;20025;-67
2021/09/30 12:25:20;;;;;;;1.50;0.40;;;;;;;;;;5037114;28;20030;-67
2021/09/30 12:27:49;;;;;;;5.15;0.85;;;;;;;;;;5053853;28;20037;-68
2021/09/30 12:30:18;;;;;;;2.95;0.63;;;;;;;;;;5033636;28;20152;-67
2021/09/30 12:32:47;;;;;;;3.17;0.80;;;;;;;;;;5043021;28;20470;-68
2021/09/30 12:35:22;;;;;;;5.15;0.82;;;;;;;;;;5041648;28;20053;-67
2021/09/30 12:38:13;;;;;;;4.32;0.88;;;;;;;;;;5044801;28;20095;-67
2021/09/30 12:40:42;;;;;;;3.22;1.00;;;;;;;;;;5044703;28;20040;-67
2021/09/30 12:43:27;;;;;;;7.30;1.58;;;;;;;;;;5045530;28;20040;-68
2021/09/30 12:45:57;;;;;;;4.20;1.13;;;;;;;;;;5053425;28;20497;-67
2021/09/30 12:48:32;;;;;;;4.78;1.25;;;;;;;;;;5051440;28;20036;-68
2021/09/30 12:51:01;;;;;;;4.47;1.00;;;;;;;;;;5043682;28;20036;-67
2021/09/30 12:53:29;;;;;;;4.20;1.25;;;;;;;;;;5051029;28;20497;-67
2021/09/30 12:56:06;;;;;;;6.90;1.40;;;;;;;;;;5052879;28;20031;-68
2021/09/30 12:58:35;;;;;;;10.10;2.03;;;;;;;;;;5043505;28;20025;-67
2021/09/30 13:01:20;;;;;;;7.88;1.33;;;;;;;;;;5037433;28;20438;-67
2021/09/30 13:04:02;;;;;;;7.47;2.00;;;;;;;;;;5051126;28;20028;-67
2021/09/30 13:06:29;;;;;;;9.20;1.42;;;;;;;;;;5044976;28;20167;-67
2021/09/30 13:08:57;;;;;;;6.68;1.55;;;;;;;;;;5048979;28;20029;-67
2021/09/30 13:11:25;;;;;;;5.22;1.88;;;;;;;;;;5031601;28;20037;-67
2021/09/30 13:14:10;;;;;;;5.05;1.55;;;;;;;;;;5031961;28;20033;-67
2021/09/30 13:16:37;;;;;;;4.97;1.40;;;;;;;;;;5033780;28;20470;-67
2021/09/30 13:19:04;;;;;;;4.50;1.02;;;;;;;;;;5051414;28;20029;-67
2021/09/30 13:21:31;;;;;;;3.35;1.05;;;;;;;;;;5036831;28;20100;-68
2021/09/30 13:23:59;;;;;;;6.45;1.10;;;;;;;;;;5051911;28;20373;-67
2021/09/30 13:26:26;;;;;;;3.28;1.00;;;;;;;;;;5048760;28;20039;-68
2021/09/30 13:28:53;;;;;;;5.03;0.90;;;;;;;;;;5051585;28;20025;-68
2021/09/30 13:31:20;;;;;;;3.17;0.98;;;;;;;;;;5051903;28;20029;-67
2021/09/30 13:33:47;;;;;;;3.97;0.80;;;;;;;;;;5047438;28;20027;-68
2021/09/30 13:36:16;;;;;;;1.60;0.70;;;;;;;;;;5045186;28;20017;-67
2021/09/30 13:38:43;;;;;;;1.83;0.73;;;;;;;;;;5049424;28;20099;-67
2021/09/30 13:41:10;;;;;;;4.32;1.13;;;;;;;;;;5033251;28;20087;-67
2021/09/30 13:43:37;;;;;;;1.65;0.70;;;;;;;;;;5038611;28;20080;-68
2021/09/30 13:46:04;;;;;;;3.20;0.85;;;;;;;;;;5048653;28;20397;-67
2021/09/30 13:48:31;;;;;;;2.35;0.80;;;;;;;;;;5038452;28;20120;-67
2021/09/30 13:50:58;;;;;;;2.08;0.88;;;;;;;;;;5030653;28;20043;-68
2021/09/30 13:53:25;;;;;;;2.30;0.68;;;;;;;;;;5046658;28;20025;-67
2021/09/30 13:55:53;;;;;;;3.17;0.70;;;;;;;;;;5046813;28;20036;-68
2021/09/30 13:58:20;;;;;;;5.00;1.30;;;;;;;;;;5050503;28;20032;-67
2021/09/30 14:00:47;;;;;;;4.28;1.42;;;;;;;;;;5051448;28;20154;-67
2021/09/30 14:03:14;;;;;;;1.92;1.08;;;;;;;;;;5041623;28;20028;-67
2021/09/30 14:05:41;;;;;;;5.00;1.30;;;;;;;;;;5033877;28;20037;-68
2021/09/30 14:08:12;;;;;;;3.75;1.10;;;;;;;;;;5050984;28;20036;-68
2021/09/30 14:10:39;;;;;;;2.70;1.02;;;;;;;;;;5051151;28;20024;-67
2021/09/30 14:13:06;;;;;;;2.72;1.13;;;;;;;;;;5040231;28;20034;-67
2021/09/30 14:15:35;;;;;;;3.42;1.85;;;;;;;;;;5044581;28;20183;-68
2021/09/30 14:18:02;;;;;;;3.45;1.30;;;;;;;;;;5051796;28;20477;-68
2021/09/30 14:20:29;;;;;;;3.58;1.58;;;;;;;;;;5055314;28;20441;-67
2021/09/30 14:22:56;;;;;;;3.58;1.10;;;;;;;;;;5054214;28;20481;-68
2021/09/30 14:25:23;;;;;;;3.40;1.95;;;;;;;;;;5055608;28;20537;-68
2021/09/30 14:27:50;;;;;;;3.05;1.10;;;;;;;;;;5052579;28;20119;-68
2021/09/30 14:30:17;;;;;;;2.60;1.40;;;;;;;;;;5054643;28;20017;-67
2021/09/30 14:32:45;;;;;;;4.95;1.25;;;;;;;;;;5046841;28;20026;-68
2021/09/30 14:35:14;;;;;;;2.75;1.23;;;;;;;;;;5036021;28;20033;-68
2021/09/30 14:37:41;;;;;;;5.07;1.42;;;;;;;;;;5055367;28;20041;-67
2021/09/30 14:40:08;;;;;;;5.43;1.63;;;;;;;;;;5035612;28;20121;-67
2021/09/30 14:42:35;;;;;;;6.57;2.15;;;;;;;;;;5050438;28;20099;-67
2021/09/30 14:45:03;;;;;;;5.65;1.63;;;;;;;;;;5055486;28;20495;-68
2021/09/30 14:47:30;;;;;;;8.55;2.20;;;;;;;;;;5048527;28;20544;-68
2021/09/30 14:49:57;;;;;;;12.70;2.60;;;;;;;;;;5035683;28;20029;-67
2021/09/30 14:52:24;;;;;;;7.60;2.30;;;;;;;;;;5040975;28;20554;-67
2021/09/30 14:54:52;;;;;;;9.43;2.72;;;;;;;;;;5054288;28;20509;-67
2021/09/30 14:57:19;;;;;;;10.27;2.85;;;;;;;;;;5054339;28;20017;-67
2021/09/30 14:59:46;;;;;;;5.63;2.25;;;;;;;;;;5055259;28;20033;-67
2021/09/30 15:02:16;;;;;;;14.23;3.95;;;;;;;;;;5052005;28;20393;-68
2021/09/30 15:04:43;;;;;;;6.65;2.33;;;;;;;;;;5035149;28;20025;-67
2021/09/30 15:07:10;;;;;;;6.15;2.28;;;;;;;;;;5037616;28;20363;-67
2021/09/30 15:09:37;;;;;;;6.20;2.33;;;;;;;;;;5053887;28;20056;-67
2021/09/30 15:12:05;;;;;;;9.13;1.92;;;;;;;;;;5065928;28;20025;-67
2021/09/30 15:14:32;;;;;;;4.13;1.30;;;;;;;;;;5042178;28;20025;-68
2021/09/30 15:17:04;;;;;;;9.02;2.90;;;;;;;;;;5053975;28;20036;-68
2021/09/30 15:22:24;;;;;;;13.13;2.65;;;;;;;;;;5050621;28;20021;-67
2021/09/30 15:24:51;;;;;;;12.82;2.63;;;;;;;;;;5054725;28;20477;-68
2021/09/30 15:27:18;;;;;;;13.02;3.58;;;;;;;;;;5048652;28;20421;-68
2021/09/30 15:29:46;;;;;;;12.93;2.60;;;;;;;;;;5052223;28;20032;-68
2021/09/30 15:32:13;;;;;;;12.82;3.47;;;;;;;;;;5046958;28;20032;-68
2021/09/30 15:34:41;;;;;;;20.40;3.20;;;;;;;;;;5044732;28;20036;-68
2021/09/30 15:37:08;;;;;;;17.45;3.30;;;;;;;;;;5037502;28;20029;-68
2021/09/30 15:39:35;;;;;;;16.10;3.28;;;;;;;;;;5034551;28;20120;-68
2021/09/30 15:42:02;;;;;;;14.38;3.97;;;;;;;;;;5037921;28;20100;-69
2021/09/30 15:44:30;;;;;;;11.68;3.47;;;;;;;;;;5054556;28;20535;-67
2021/09/30 15:46:58;;;;;;;7.60;2.53;;;;;;;;;;5051776;28;20029;-68
2021/09/30 15:49:26;;;;;;;9.23;2.55;;;;;;;;;;5043896;28;20043;-68
2021/09/30 15:51:53;;;;;;;10.95;3.33;;;;;;;;;;5041061;28;20025;-68
2021/09/30 15:54:20;;;;;;;11.88;3.40;;;;;;;;;;5039258;28;20028;-68
2021/09/30 15:56:47;;;;;;;10.50;2.92;;;;;;;;;;5050358;28;20424;-68
2021/09/30 15:59:14;;;;;;;14.40;2.97;;;;;;;;;;5053157;28;20075;-68
2021/09/30 16:01:41;;;;;;;9.60;2.75;;;;;;;;;;5053022;28;20055;-68
2021/09/30 16:04:08;;;;;;;10.60;2.53;;;;;;;;;;5053340;28;20140;-68
2021/09/30 16:06:39;;;;;;;5.50;2.17;;;;;;;;;;5052330;28;20033;-67
2021/09/30 16:09:06;;;;;;;9.00;2.67;;;;;;;;;;5050160;28;20515;-67
2021/09/30 16:11:33;;;;;;;5.88;2.15;;;;;;;;;;5033641;28;20052;-67
2021/09/30 16:14:00;;;;;;;8.32;2.10;;;;;;;;;;5050470;28;20025;-67
2021/09/30 16:16:27;;;;;;;8.15;2.83;;;;;;;;;;5053669;28;20021;-67
2021/09/30 16:18:54;;;;;;;6.35;2.60;;;;;;;;;;5048882;28;20493;-67
2021/09/30 16:21:21;;;;;;;8.32;3.25;;;;;;;;;;5046206;28;20052;-68
2021/09/30 16:23:49;;;;;;;7.88;2.83;;;;;;;;;;5047686;28;20028;-68
2021/09/30 16:26:19;;;;;;;11.00;3.00;;;;;;;;;;5033649;28;20029;-68
2021/09/30 16:28:51;;;;;;;8.45;3.00;;;;;;;;;;5050957;28;20377;-68
2021/09/30 16:31:18;;;;;;;16.98;3.42;;;;;;;;;;5045295;28;20108;-68
2021/09/30 16:33:45;;;;;;;8.32;3.45;;;;;;;;;;5061879;28;20042;-68
2021/09/30 16:36:12;;;;;;;9.88;3.58;;;;;;;;;;5033654;28;20017;-68
2021/09/30 16:38:41;;;;;;;10.82;3.88;;;;;;;;;;5033120;28;20514;-68
2021/09/30 16:41:10;;;;;;;8.18;3.50;;;;;;;;;;5034028;28;20108;-68
2021/09/30 16:43:37;;;;;;;10.25;4.15;;;;;;;;;;5049915;28;20027;-68
2021/09/30 16:46:05;;;;;;;10.82;4.80;;;;;;;;;;5046205;28;20025;-68
2021/09/30 16:48:32;;;;;;;12.20;4.22;;;;;;;;;;5050396;28;20067;-68
2021/09/30 16:50:59;;;;;;;10.38;4.82;;;;;;;;;;5053036;28;20037;-68
2021/09/30 16:53:27;;;;;;;6.85;3.63;;;;;;;;;;5047148;28;20024;-67
2021/09/30 16:55:55;;;;;;;9.00;3.95;;;;;;;;;;5040752;28;20044;-68
2021/09/30 16:58:26;;;;;;;10.73;4.30;;;;;;;;;;5048340;28;20025;-66
2021/09/30 17:00:53;;;;;;;8.32;3.38;;;;;;;;;;5043021;28;20347;-68
2021/09/30 17:03:20;;;;;;;10.40;3.88;;;;;;;;;;5046736;28;20020;-68
2021/09/30 17:05:47;;;;;;;10.55;3.20;;;;;;;;;;5040762;28;20079;-68
2021/09/30 17:08:15;;;;;;;9.70;3.60;;;;;;;;;;5045403;28;20029;-68
2021/09/30 17:10:42;;;;;;;10.00;3.70;;;;;;;;;;5035169;28;20060;-67
2021/09/30 17:13:09;;;;;;;5.53;3.28;;;;;;;;;;5045846;28;20408;-68
2021/09/30 17:15:37;;;;;;;7.57;3.35;;;;;;;;;;5045553;28;20020;-67
2021/09/30 17:18:04;;;;;;;5.22;2.65;;;;;;;;;;5051788;28;20021;-67
2021/09/30 17:20:33;;;;;;;9.20;3.42;;;;;;;;;;5052551;28;20403;-68
2021/09/30 17:23:00;;;;;;;7.50;3.25;;;;;;;;;;5049564;28;20036;-67
2021/09/30 17:25:28;;;;;;;5.47;2.58;;;;;;;;;;5041882;28;20199;-68
2021/09/30 17:27:55;;;;;;;7.65;3.33;;;;;;;;;;5050442;28;20033;-67
2021/09/30 17:30:23;;;;;;;7.72;3.47;;;;;;;;;;5051104;28;20021;-67
2021/09/30 17:32:51;;;;;;;5.10;3.00;;;;;;;;;;5050722;28;20390;-68
2021/09/30 17:35:19;;;;;;;9.57;3.47;;;;;;;;;;5051730;28;20029;-67
2021/09/30 17:37:46;;;;;;;4.93;2.53;;;;;;;;;;5051083;28;20029;-67
2021/09/30 17:40:14;;;;;;;6.30;2.45;;;;;;;;;;5051095;28;20119;-67
2021/09/30 17:42:42;;;;;;;10.07;3.13;;;;;;;;;;5051232;28;20020;-68
2021/09/30 17:45:10;;;;;;;6.15;3.20;;;;;;;;;;5052274;28;20055;-67
2021/09/30 17:47:37;;;;;;;8.95;2.85;;;;;;;;;;5049840;28;20471;-68
2021/09/30 17:50:06;;;;;;;7.28;2.83;;;;;;;;;;5051812;28;20323;-68
2021/09/30 17:52:33;;;;;;;9.88;3.53;;;;;;;;;;5046165;28;20077;-68
2021/09/30 17:55:00;;;;;;;9.43;3.08;;;;;;;;;;5050332;28;20025;-68